sensor_id;sensor_type;location;lat;lon;timestamp;pressure;altitude;pressure_sealevel;temperature;humidity
48792;BME280;34587;48.816;9.420;2023-04-26T04:17:04;98905.69;;;3.13;100.00
48792;BME280;34587;48.816;9.420;2023-04-26T04:19:29;98898.75;;;3.04;100.00
48792;BME280;34587;48.816;9.420;2023-04-26T04:21:54;98898.91;;;3.15;100.00
48792;BME280;34587;48.816;9.420;2023-04-26T04:24:20;98904.78;;;3.08;100.00
48792;BME280;34587;48.816;9.420;2023-04-26T04:26:45;98899.63;;;3.05;100.00
48792;BME280;34587;48.816;9.420;2023-04-26T04:29:11;98901.47;;;3.15;100.00
48792;BME280;34587;48.816;9.420;2023-04-26T04:31:36;98896.34;;;3.15;100.00
48792;BME280;34587;48.816;9.420;2023-04-26T04:34:03;98898.13;;;3.19;100.00
48792;BME280;34587;48.816;9.420;2023-04-26T04:36:29;98905.09;;;3.32;100.00
48792;BME280;34587;48.816;9.420;2023-04-26T04:38:55;98899.84;;;3.23;100.00
48792;BME280;34587;48.816;9.420;2023-04-26T04:41:20;98904.34;;;3.40;100.00
48792;BME280;34587;48.816;9.420;2023-04-26T04:43:46;98907.78;;;3.43;100.00
48792;BME280;34587;48.816;9.420;2023-04-26T04:46:12;98910.63;;;3.63;100.00
48792;BME280;34587;48.816;9.420;2023-04-26T04:48:37;98902.19;;;3.73;100.00
48792;BME280;34587;48.816;9.420;2023-04-26T04:51:03;98900.63;;;3.88;100.00
48792;BME280;34587;48.816;9.420;2023-04-26T04:53:28;98898.88;;;3.83;100.00
48792;BME280;34587;48.816;9.420;2023-04-26T04:55:54;98904.16;;;3.99;100.00
48792;BME280;34587;48.816;9.420;2023-04-26T04:58:20;98895.84;;;4.21;100.00
48792;BME280;34587;48.816;9.420;2023-04-26T05:00:46;98901.97;;;4.38;99.51
48792;BME280;34587;48.816;9.420;2023-04-26T05:03:13;98907.19;;;4.49;97.76
48792;BME280;34587;48.816;9.420;2023-04-26T05:05:39;98901.19;;;4.46;95.60
48792;BME280;34587;48.816;9.420;2023-04-26T05:08:04;98908.06;;;4.50;95.61
48792;BME280;34587;48.816;9.420;2023-04-26T05:10:32;98915.47;;;4.16;95.55
48792;BME280;34587;48.816;9.420;2023-04-26T05:12:58;98919.53;;;3.99;97.47
48792;BME280;34587;48.816;9.420;2023-04-26T05:15:23;98923.16;;;4.19;97.78
48792;BME280;34587;48.816;9.420;2023-04-26T05:17:48;98925.00;;;4.32;97.55
48792;BME280;34587;48.816;9.420;2023-04-26T05:20:14;98926.00;;;4.47;97.50
48792;BME280;34587;48.816;9.420;2023-04-26T05:22:40;98926.94;;;4.58;97.12
48792;BME280;34587;48.816;9.420;2023-04-26T05:25:06;98930.34;;;4.57;96.75
48792;BME280;34587;48.816;9.420;2023-04-26T05:27:32;98935.53;;;4.60;95.73
48792;BME280;34587;48.816;9.420;2023-04-26T05:29:59;98939.75;;;4.58;96.52
48792;BME280;34587;48.816;9.420;2023-04-26T05:32:25;98938.13;;;4.68;96.34
48792;BME280;34587;48.816;9.420;2023-04-26T05:34:50;98940.75;;;4.72;96.48
48792;BME280;34587;48.816;9.420;2023-04-26T05:37:16;98940.00;;;4.85;96.84
48792;BME280;34587;48.816;9.420;2023-04-26T05:39:41;98939.13;;;4.86;96.07
48792;BME280;34587;48.816;9.420;2023-04-26T05:42:06;98937.50;;;4.95;95.59
48792;BME280;34587;48.816;9.420;2023-04-26T05:44:32;98946.03;;;4.90;95.57
48792;BME280;34587;48.816;9.420;2023-04-26T05:46:57;98945.28;;;5.10;95.25
48792;BME280;34587;48.816;9.420;2023-04-26T05:49:22;98939.28;;;5.05;94.26
48792;BME280;34587;48.816;9.420;2023-04-26T05:51:48;98944.38;;;4.99;94.84
48792;BME280;34587;48.816;9.420;2023-04-26T05:54:13;98947.88;;;5.10;95.41
48792;BME280;34587;48.816;9.420;2023-04-26T05:56:38;98942.81;;;5.25;95.26
48792;BME280;34587;48.816;9.420;2023-04-26T05:59:04;98945.31;;;5.13;94.97
48792;BME280;34587;48.816;9.420;2023-04-26T06:01:29;98951.28;;;5.09;94.58
48792;BME280;34587;48.816;9.420;2023-04-26T06:03:55;98948.06;;;5.44;94.56
48792;BME280;34587;48.816;9.420;2023-04-26T06:06:20;98944.63;;;5.41;93.79
48792;BME280;34587;48.816;9.420;2023-04-26T06:08:46;98955.00;;;5.63;93.17
48792;BME280;34587;48.816;9.420;2023-04-26T06:11:11;98952.59;;;5.98;93.00
48792;BME280;34587;48.816;9.420;2023-04-26T06:13:36;98948.44;;;6.66;90.72
48792;BME280;34587;48.816;9.420;2023-04-26T06:16:02;98947.59;;;6.84;87.21
48792;BME280;34587;48.816;9.420;2023-04-26T06:18:27;98949.31;;;6.88;85.82
48792;BME280;34587;48.816;9.420;2023-04-26T06:20:52;98941.56;;;6.62;86.58
48792;BME280;34587;48.816;9.420;2023-04-26T06:23:17;98940.72;;;6.63;87.43
48792;BME280;34587;48.816;9.420;2023-04-26T06:25:43;98946.72;;;6.95;88.20
48792;BME280;34587;48.816;9.420;2023-04-26T06:28:10;98945.78;;;7.42;85.60
48792;BME280;34587;48.816;9.420;2023-04-26T06:30:36;98946.59;;;7.57;82.93
48792;BME280;34587;48.816;9.420;2023-04-26T06:33:01;98943.97;;;7.63;80.61
48792;BME280;34587;48.816;9.420;2023-04-26T06:35:26;98946.69;;;7.31;81.78
48792;BME280;34587;48.816;9.420;2023-04-26T06:37:52;98953.47;;;7.48;82.03
48792;BME280;34587;48.816;9.420;2023-04-26T06:40:17;98950.72;;;8.04;80.26
48792;BME280;34587;48.816;9.420;2023-04-26T06:42:42;98951.59;;;7.99;79.79
48792;BME280;34587;48.816;9.420;2023-04-26T06:45:08;98952.38;;;8.14;78.37
48792;BME280;34587;48.816;9.420;2023-04-26T06:47:34;98951.25;;;8.61;76.90
48792;BME280;34587;48.816;9.420;2023-04-26T06:49:59;98950.00;;;9.06;75.40
48792;BME280;34587;48.816;9.420;2023-04-26T06:52:25;98934.38;;;11.10;69.54
48792;BME280;34587;48.816;9.420;2023-04-26T06:54:50;98938.53;;;12.47;61.91
48792;BME280;34587;48.816;9.420;2023-04-26T06:57:16;98927.81;;;15.05;54.78
48792;BME280;34587;48.816;9.420;2023-04-26T06:59:41;98926.16;;;17.10;47.74
48792;BME280;34587;48.816;9.420;2023-04-26T07:02:06;98921.22;;;18.22;43.41
48792;BME280;34587;48.816;9.420;2023-04-26T07:04:31;98928.56;;;17.35;43.96
48792;BME280;34587;48.816;9.420;2023-04-26T07:06:57;98927.00;;;16.25;47.17
48792;BME280;34587;48.816;9.420;2023-04-26T07:09:22;98921.69;;;17.53;44.88
48792;BME280;34587;48.816;9.420;2023-04-26T07:11:47;98919.44;;;19.47;41.64
48792;BME280;34587;48.816;9.420;2023-04-26T07:14:13;98926.09;;;20.36;38.69
48792;BME280;34587;48.816;9.420;2023-04-26T07:16:38;98914.53;;;21.30;37.66
48792;BME280;34587;48.816;9.420;2023-04-26T07:19:03;98918.25;;;19.02;39.77
48792;BME280;34587;48.816;9.420;2023-04-26T07:21:29;98928.84;;;17.09;43.73
48792;BME280;34587;48.816;9.420;2023-04-26T07:23:55;98928.94;;;17.28;43.28
48792;BME280;34587;48.816;9.420;2023-04-26T07:26:21;98928.59;;;17.95;41.93
48792;BME280;34587;48.816;9.420;2023-04-26T07:28:47;98921.63;;;18.32;41.69
48792;BME280;34587;48.816;9.420;2023-04-26T07:31:12;98911.41;;;19.50;39.80
48792;BME280;34587;48.816;9.420;2023-04-26T07:33:38;98906.13;;;20.32;37.24
48792;BME280;34587;48.816;9.420;2023-04-26T07:36:03;98904.41;;;21.81;35.04
48792;BME280;34587;48.816;9.420;2023-04-26T07:38:29;98910.16;;;21.15;34.42
48792;BME280;34587;48.816;9.420;2023-04-26T07:40:54;98923.44;;;18.67;37.45
48792;BME280;34587;48.816;9.420;2023-04-26T07:43:20;98921.75;;;18.66;39.42
48792;BME280;34587;48.816;9.420;2023-04-26T07:45:45;98905.31;;;22.09;34.14
48792;BME280;34587;48.816;9.420;2023-04-26T07:48:11;98900.63;;;23.22;31.60
48792;BME280;34587;48.816;9.420;2023-04-26T07:50:36;98906.47;;;23.00;28.40
48792;BME280;34587;48.816;9.420;2023-04-26T07:53:02;98910.88;;;21.03;28.80
48792;BME280;34587;48.816;9.420;2023-04-26T07:55:27;98900.38;;;23.25;28.20
48792;BME280;34587;48.816;9.420;2023-04-26T07:57:52;98897.25;;;25.74;25.86
48792;BME280;34587;48.816;9.420;2023-04-26T08:00:18;98911.28;;;21.11;26.83
48792;BME280;34587;48.816;9.420;2023-04-26T08:02:44;98908.75;;;22.11;27.50
48792;BME280;34587;48.816;9.420;2023-04-26T08:05:13;98910.69;;;22.90;26.34
48792;BME280;34587;48.816;9.420;2023-04-26T08:07:39;98913.97;;;23.72;26.18
48792;BME280;34587;48.816;9.420;2023-04-26T08:10:05;98907.41;;;23.52;25.75
48792;BME280;34587;48.816;9.420;2023-04-26T08:12:32;98909.22;;;24.26;25.60
48792;BME280;34587;48.816;9.420;2023-04-26T08:14:59;98919.81;;;22.45;26.61
48792;BME280;34587;48.816;9.420;2023-04-26T08:17:25;98919.03;;;20.37;29.06
48792;BME280;34587;48.816;9.420;2023-04-26T08:19:50;98924.72;;;17.44;34.43
48792;BME280;34587;48.816;9.420;2023-04-26T08:22:15;98934.91;;;16.45;36.35
48792;BME280;34587;48.816;9.420;2023-04-26T08:24:40;98931.09;;;16.76;36.44
48792;BME280;34587;48.816;9.420;2023-04-26T08:27:06;98923.28;;;18.34;33.12
48792;BME280;34587;48.816;9.420;2023-04-26T08:29:31;98921.38;;;18.38;32.21
48792;BME280;34587;48.816;9.420;2023-04-26T08:31:56;98922.38;;;20.56;28.05
48792;BME280;34587;48.816;9.420;2023-04-26T08:34:22;98921.03;;;20.00;28.62
48792;BME280;34587;48.816;9.420;2023-04-26T08:36:47;98916.50;;;21.86;25.44
48792;BME280;34587;48.816;9.420;2023-04-26T08:39:12;98904.03;;;24.38;23.83
48792;BME280;34587;48.816;9.420;2023-04-26T08:41:43;98902.56;;;24.81;23.05
48792;BME280;34587;48.816;9.420;2023-04-26T08:44:09;98915.44;;;23.38;23.00
48792;BME280;34587;48.816;9.420;2023-04-26T08:47:21;98921.91;;;20.79;26.16
48792;BME280;34587;48.816;9.420;2023-04-26T08:49:53;98925.31;;;21.70;28.08
48792;BME280;34587;48.816;9.420;2023-04-26T08:52:26;98917.56;;;23.45;23.57
48792;BME280;34587;48.816;9.420;2023-04-26T08:54:53;98908.78;;;24.32;24.10
48792;BME280;34587;48.816;9.420;2023-04-26T08:57:18;98915.00;;;24.92;24.09
48792;BME280;34587;48.816;9.420;2023-04-26T08:59:45;98921.44;;;23.40;24.63
48792;BME280;34587;48.816;9.420;2023-04-26T09:02:15;98929.50;;;19.73;28.33
48792;BME280;34587;48.816;9.420;2023-04-26T09:04:41;98912.78;;;23.63;25.65
48792;BME280;34587;48.816;9.420;2023-04-26T09:07:07;98905.38;;;27.25;20.63
48792;BME280;34587;48.816;9.420;2023-04-26T09:09:34;98911.88;;;24.63;22.96
48792;BME280;34587;48.816;9.420;2023-04-26T09:12:03;98916.00;;;21.79;25.98
48792;BME280;34587;48.816;9.420;2023-04-26T09:14:29;98917.75;;;20.12;30.51
48792;BME280;34587;48.816;9.420;2023-04-26T09:16:54;98919.81;;;19.06;30.50
48792;BME280;34587;48.816;9.420;2023-04-26T09:19:35;98904.22;;;19.87;30.78
48792;BME280;34587;48.816;9.420;2023-04-26T09:22:02;98912.78;;;19.74;32.45
48792;BME280;34587;48.816;9.420;2023-04-26T09:24:27;98897.94;;;22.28;29.24
48792;BME280;34587;48.816;9.420;2023-04-26T09:27:02;98913.16;;;20.00;31.73
48792;BME280;34587;48.816;9.420;2023-04-26T09:29:27;98898.34;;;19.82;30.67
48792;BME280;34587;48.816;9.420;2023-04-26T09:31:52;98895.16;;;21.32;29.17
48792;BME280;34587;48.816;9.420;2023-04-26T09:34:18;98903.47;;;19.85;32.72
48792;BME280;34587;48.816;9.420;2023-04-26T09:36:52;98904.16;;;19.38;31.89
48792;BME280;34587;48.816;9.420;2023-04-26T09:39:31;98906.97;;;18.83;32.77
48792;BME280;34587;48.816;9.420;2023-04-26T09:41:57;98912.19;;;15.03;38.46
48792;BME280;34587;48.816;9.420;2023-04-26T09:44:24;98910.63;;;14.99;38.12
48792;BME280;34587;48.816;9.420;2023-04-26T09:47:02;98910.75;;;14.40;39.59
48792;BME280;34587;48.816;9.420;2023-04-26T09:49:41;98907.28;;;14.39;40.10
48792;BME280;34587;48.816;9.420;2023-04-26T09:52:07;98889.19;;;18.15;35.04
48792;BME280;34587;48.816;9.420;2023-04-26T09:57:07;98873.72;;;20.77;30.39
48792;BME280;34587;48.816;9.420;2023-04-26T09:59:43;98883.13;;;21.56;28.28
48792;BME280;34587;48.816;9.420;2023-04-26T10:02:25;98872.34;;;22.16;26.34
48792;BME280;34587;48.816;9.420;2023-04-26T10:04:55;98879.81;;;21.95;26.10
48792;BME280;34587;48.816;9.420;2023-04-26T10:07:23;98871.31;;;20.11;30.87
48792;BME280;34587;48.816;9.420;2023-04-26T10:09:48;98879.53;;;18.88;30.34
48792;BME280;34587;48.816;9.420;2023-04-26T10:12:16;98888.94;;;18.39;29.85
48792;BME280;34587;48.816;9.420;2023-04-26T10:14:43;98887.66;;;17.33;32.63
48792;BME280;34587;48.816;9.420;2023-04-26T10:17:09;98896.97;;;16.35;33.79
48792;BME280;34587;48.816;9.420;2023-04-26T10:19:36;98886.50;;;16.35;32.37
48792;BME280;34587;48.816;9.420;2023-04-26T10:22:12;98877.06;;;17.36;32.82
48792;BME280;34587;48.816;9.420;2023-04-26T10:24:39;98879.31;;;16.40;33.12
48792;BME280;34587;48.816;9.420;2023-04-26T10:27:05;98875.19;;;16.99;33.33
48792;BME280;34587;48.816;9.420;2023-04-26T10:32:32;98872.03;;;17.50;31.99
48792;BME280;34587;48.816;9.420;2023-04-26T10:35:11;98870.53;;;16.85;33.93
48792;BME280;34587;48.816;9.420;2023-04-26T10:40:26;98878.19;;;15.55;36.24
48792;BME280;34587;48.816;9.420;2023-04-26T10:45:44;98860.00;;;16.64;34.95
48792;BME280;34587;48.816;9.420;2023-04-26T10:48:27;98881.38;;;15.14;35.03
48792;BME280;34587;48.816;9.420;2023-04-26T10:58:48;98867.44;;;17.36;32.83
48792;BME280;34587;48.816;9.420;2023-04-26T11:01:16;98856.28;;;18.08;31.96
48792;BME280;34587;48.816;9.420;2023-04-26T11:04:00;98864.47;;;17.83;30.08
48792;BME280;34587;48.816;9.420;2023-04-26T11:06:54;98858.03;;;17.90;28.39
48792;BME280;34587;48.816;9.420;2023-04-26T11:09:47;98846.81;;;20.26;28.36
48792;BME280;34587;48.816;9.420;2023-04-26T11:12:14;98842.94;;;20.94;27.45
48792;BME280;34587;48.816;9.420;2023-04-26T11:14:44;98845.13;;;20.71;26.76
48792;BME280;34587;48.816;9.420;2023-04-26T11:17:12;98838.16;;;20.70;27.09
48792;BME280;34587;48.816;9.420;2023-04-26T11:19:40;98847.63;;;17.68;29.42
48792;BME280;34587;48.816;9.420;2023-04-26T11:22:06;98834.66;;;18.58;31.78
48792;BME280;34587;48.816;9.420;2023-04-26T11:24:33;98841.78;;;18.01;31.40
48792;BME280;34587;48.816;9.420;2023-04-26T11:27:10;98841.72;;;17.65;32.53
48792;BME280;34587;48.816;9.420;2023-04-26T11:29:36;98844.16;;;16.67;32.69
48792;BME280;34587;48.816;9.420;2023-04-26T11:32:01;98819.53;;;18.81;30.82
48792;BME280;34587;48.816;9.420;2023-04-26T11:34:34;98814.88;;;18.51;30.91
48792;BME280;34587;48.816;9.420;2023-04-26T11:37:00;98829.09;;;17.92;30.75
48792;BME280;34587;48.816;9.420;2023-04-26T11:39:26;98819.91;;;17.83;31.77
48792;BME280;34587;48.816;9.420;2023-04-26T11:42:03;98811.88;;;19.44;29.07
48792;BME280;34587;48.816;9.420;2023-04-26T11:44:30;98806.56;;;19.77;30.04
48792;BME280;34587;48.816;9.420;2023-04-26T11:46:55;98801.50;;;20.82;26.58
48792;BME280;34587;48.816;9.420;2023-04-26T11:49:20;98800.06;;;21.63;26.08
48792;BME280;34587;48.816;9.420;2023-04-26T11:51:47;98799.38;;;21.17;27.18
48792;BME280;34587;48.816;9.420;2023-04-26T11:54:32;98790.63;;;21.16;25.53
48792;BME280;34587;48.816;9.420;2023-04-26T11:56:58;98786.66;;;19.89;28.90
48792;BME280;34587;48.816;9.420;2023-04-26T11:59:27;98784.25;;;19.19;30.60
48792;BME280;34587;48.816;9.420;2023-04-26T12:01:56;98797.56;;;17.37;33.54
48792;BME280;34587;48.816;9.420;2023-04-26T12:04:29;98797.50;;;17.95;31.36
48792;BME280;34587;48.816;9.420;2023-04-26T12:06:55;98785.72;;;16.89;33.81
48792;BME280;34587;48.816;9.420;2023-04-26T12:09:30;98781.25;;;16.50;35.16
48792;BME280;34587;48.816;9.420;2023-04-26T12:11:59;98793.19;;;15.23;35.28
48792;BME280;34587;48.816;9.420;2023-04-26T12:14:36;98787.34;;;15.16;36.48
48792;BME280;34587;48.816;9.420;2023-04-26T12:17:02;98787.06;;;15.71;35.72
48792;BME280;34587;48.816;9.420;2023-04-26T12:19:35;98790.31;;;15.99;35.60
48792;BME280;34587;48.816;9.420;2023-04-26T12:22:01;98800.56;;;15.58;33.79
48792;BME280;34587;48.816;9.420;2023-04-26T12:24:28;98783.56;;;16.15;35.56
48792;BME280;34587;48.816;9.420;2023-04-26T12:26:54;98779.41;;;16.32;34.00
48792;BME280;34587;48.816;9.420;2023-04-26T12:29:20;98785.28;;;15.71;32.81
48792;BME280;34587;48.816;9.420;2023-04-26T12:31:45;98777.72;;;16.51;34.29
48792;BME280;34587;48.816;9.420;2023-04-26T12:34:11;98772.56;;;16.50;33.03
48792;BME280;34587;48.816;9.420;2023-04-26T12:36:39;98777.16;;;16.23;33.02
48792;BME280;34587;48.816;9.420;2023-04-26T12:39:04;98774.25;;;16.08;32.48
48792;BME280;34587;48.816;9.420;2023-04-26T12:41:31;98783.09;;;15.13;36.07
48792;BME280;34587;48.816;9.420;2023-04-26T12:43:56;98761.66;;;16.81;34.24
48792;BME280;34587;48.816;9.420;2023-04-26T12:46:22;98760.91;;;16.57;32.83
48792;BME280;34587;48.816;9.420;2023-04-26T12:48:47;98759.03;;;15.52;34.85
48792;BME280;34587;48.816;9.420;2023-04-26T12:51:12;98761.75;;;15.26;36.04
48792;BME280;34587;48.816;9.420;2023-04-26T12:53:37;98764.09;;;14.60;36.62
48792;BME280;34587;48.816;9.420;2023-04-26T12:56:03;98761.38;;;14.38;36.54
48792;BME280;34587;48.816;9.420;2023-04-26T12:58:28;98763.84;;;14.68;37.10
48792;BME280;34587;48.816;9.420;2023-04-26T13:00:54;98772.38;;;14.73;35.39
48792;BME280;34587;48.816;9.420;2023-04-26T13:03:19;98762.31;;;14.35;35.47
48792;BME280;34587;48.816;9.420;2023-04-26T13:05:44;98763.19;;;15.80;34.27
48792;BME280;34587;48.816;9.420;2023-04-26T13:08:10;98759.78;;;16.22;34.34
48792;BME280;34587;48.816;9.420;2023-04-26T13:10:35;98756.13;;;16.66;34.26
48792;BME280;34587;48.816;9.420;2023-04-26T13:13:01;98754.91;;;16.12;37.16
48792;BME280;34587;48.816;9.420;2023-04-26T13:15:26;98759.44;;;14.70;36.07
48792;BME280;34587;48.816;9.420;2023-04-26T13:17:52;98758.31;;;14.77;37.02
48792;BME280;34587;48.816;9.420;2023-04-26T13:20:18;98755.63;;;15.27;35.47
48792;BME280;34587;48.816;9.420;2023-04-26T13:22:43;98750.06;;;15.36;37.38
48792;BME280;34587;48.816;9.420;2023-04-26T13:25:09;98751.94;;;14.34;37.27
48792;BME280;34587;48.816;9.420;2023-04-26T13:27:35;98751.84;;;14.10;38.61
48792;BME280;34587;48.816;9.420;2023-04-26T13:30:01;98749.03;;;14.43;37.30
48792;BME280;34587;48.816;9.420;2023-04-26T13:32:27;98751.28;;;15.04;36.90
48792;BME280;34587;48.816;9.420;2023-04-26T13:34:53;98743.53;;;14.77;39.91
48792;BME280;34587;48.816;9.420;2023-04-26T13:37:19;98734.81;;;14.53;38.03
48792;BME280;34587;48.816;9.420;2023-04-26T13:39:45;98734.63;;;14.83;36.03
48792;BME280;34587;48.816;9.420;2023-04-26T13:42:12;98736.41;;;14.57;37.75
48792;BME280;34587;48.816;9.420;2023-04-26T13:44:38;98742.34;;;13.83;39.25
48792;BME280;34587;48.816;9.420;2023-04-26T13:47:03;98748.19;;;13.89;40.33
48792;BME280;34587;48.816;9.420;2023-04-26T13:49:29;98752.53;;;14.42;36.67
48792;BME280;34587;48.816;9.420;2023-04-26T13:51:54;98737.59;;;15.21;37.33
48792;BME280;34587;48.816;9.420;2023-04-26T13:54:19;98741.22;;;15.63;36.67
48792;BME280;34587;48.816;9.420;2023-04-26T13:56:50;98740.94;;;15.48;35.54
48792;BME280;34587;48.816;9.420;2023-04-26T13:59:16;98736.78;;;16.50;34.59
48792;BME280;34587;48.816;9.420;2023-04-26T14:01:41;98733.91;;;16.56;34.22
48792;BME280;34587;48.816;9.420;2023-04-26T14:04:06;98739.97;;;15.03;36.20
48792;BME280;34587;48.816;9.420;2023-04-26T14:06:32;98741.44;;;15.10;38.28
48792;BME280;34587;48.816;9.420;2023-04-26T14:08:58;98736.06;;;14.42;38.16
48792;BME280;34587;48.816;9.420;2023-04-26T14:11:24;98740.16;;;14.74;37.33
48792;BME280;34587;48.816;9.420;2023-04-26T14:13:49;98740.13;;;14.24;37.81
48792;BME280;34587;48.816;9.420;2023-04-26T14:16:15;98740.94;;;13.99;38.59
48792;BME280;34587;48.816;9.420;2023-04-26T14:18:41;98741.13;;;14.20;38.99
48792;BME280;34587;48.816;9.420;2023-04-26T14:21:12;98742.63;;;14.27;38.59
48792;BME280;34587;48.816;9.420;2023-04-26T14:23:38;98738.59;;;14.43;39.09
48792;BME280;34587;48.816;9.420;2023-04-26T14:26:03;98725.84;;;14.85;38.57
48792;BME280;34587;48.816;9.420;2023-04-26T14:28:28;98724.91;;;14.63;38.21
48792;BME280;34587;48.816;9.420;2023-04-26T14:30:54;98723.75;;;15.19;36.56
48792;BME280;34587;48.816;9.420;2023-04-26T14:33:19;98732.03;;;15.06;36.67
48792;BME280;34587;48.816;9.420;2023-04-26T14:35:44;98711.94;;;15.08;36.89
48792;BME280;34587;48.816;9.420;2023-04-26T14:38:10;98720.81;;;15.04;37.03
48792;BME280;34587;48.816;9.420;2023-04-26T14:40:36;98717.56;;;14.49;37.25
48792;BME280;34587;48.816;9.420;2023-04-26T14:43:01;98723.28;;;14.34;38.87
48792;BME280;34587;48.816;9.420;2023-04-26T14:45:27;98716.97;;;14.14;38.65
48792;BME280;34587;48.816;9.420;2023-04-26T14:47:52;98726.50;;;14.40;39.37
48792;BME280;34587;48.816;9.420;2023-04-26T14:50:17;98722.88;;;14.46;38.57
48792;BME280;34587;48.816;9.420;2023-04-26T14:52:44;98722.28;;;14.11;38.39
48792;BME280;34587;48.816;9.420;2023-04-26T14:55:15;98722.16;;;14.41;39.13
48792;BME280;34587;48.816;9.420;2023-04-26T14:57:41;98715.75;;;14.51;38.66
48792;BME280;34587;48.816;9.420;2023-04-26T15:00:07;98715.66;;;14.28;39.00
48792;BME280;34587;48.816;9.420;2023-04-26T15:02:39;98718.06;;;14.34;39.42
48792;BME280;34587;48.816;9.420;2023-04-26T15:05:05;98720.03;;;14.01;38.87
48792;BME280;34587;48.816;9.420;2023-04-26T15:07:31;98716.56;;;14.00;39.54
48792;BME280;34587;48.816;9.420;2023-04-26T15:09:57;98722.50;;;14.05;38.98
48792;BME280;34587;48.816;9.420;2023-04-26T15:12:22;98722.22;;;13.86;38.66
48792;BME280;34587;48.816;9.420;2023-04-26T15:14:47;98728.19;;;13.90;38.61
48792;BME280;34587;48.816;9.420;2023-04-26T15:17:13;98728.28;;;13.87;38.64
48792;BME280;34587;48.816;9.420;2023-04-26T15:19:38;98723.19;;;13.84;38.80
48792;BME280;34587;48.816;9.420;2023-04-26T15:22:03;98721.59;;;13.80;37.66
48792;BME280;34587;48.816;9.420;2023-04-26T15:24:34;98719.06;;;14.30;37.66
48792;BME280;34587;48.816;9.420;2023-04-26T15:26:59;98715.91;;;14.72;36.68
48792;BME280;34587;48.816;9.420;2023-04-26T15:29:25;98706.81;;;15.52;35.90
48792;BME280;34587;48.816;9.420;2023-04-26T15:31:51;98697.34;;;15.72;36.30
48792;BME280;34587;48.816;9.420;2023-04-26T15:34:17;98704.00;;;14.88;37.11
48792;BME280;34587;48.816;9.420;2023-04-26T15:36:43;98707.53;;;14.87;38.31
48792;BME280;34587;48.816;9.420;2023-04-26T15:39:08;98705.31;;;15.23;36.96
48792;BME280;34587;48.816;9.420;2023-04-26T15:41:33;98705.41;;;15.20;37.15
48792;BME280;34587;48.816;9.420;2023-04-26T15:43:58;98700.38;;;15.15;38.81
48792;BME280;34587;48.816;9.420;2023-04-26T15:46:24;98699.19;;;14.77;38.09
48792;BME280;34587;48.816;9.420;2023-04-26T15:48:49;98703.78;;;14.94;37.52
48792;BME280;34587;48.816;9.420;2023-04-26T15:51:15;98711.06;;;14.61;37.41
48792;BME280;34587;48.816;9.420;2023-04-26T15:53:40;98703.91;;;14.91;37.94
48792;BME280;34587;48.816;9.420;2023-04-26T15:56:16;98702.84;;;14.47;37.25
48792;BME280;34587;48.816;9.420;2023-04-26T15:58:43;98703.16;;;14.12;37.72
48792;BME280;34587;48.816;9.420;2023-04-26T16:01:11;98709.06;;;14.18;38.93
48792;BME280;34587;48.816;9.420;2023-04-26T16:03:37;98701.97;;;14.21;39.21
48792;BME280;34587;48.816;9.420;2023-04-26T16:06:03;98696.88;;;14.43;39.50
48792;BME280;34587;48.816;9.420;2023-04-26T16:08:29;98698.03;;;14.09;39.44
48792;BME280;34587;48.816;9.420;2023-04-26T16:10:58;98697.16;;;13.84;39.37
48792;BME280;34587;48.816;9.420;2023-04-26T16:13:24;98695.84;;;13.71;39.98
48792;BME280;34587;48.816;9.420;2023-04-26T16:15:49;98689.59;;;13.48;39.49
48792;BME280;34587;48.816;9.420;2023-04-26T16:18:15;98694.31;;;14.17;39.37
48792;BME280;34587;48.816;9.420;2023-04-26T16:20:40;98692.69;;;14.39;37.95
48792;BME280;34587;48.816;9.420;2023-04-26T16:23:05;98690.50;;;14.27;39.66
48792;BME280;34587;48.816;9.420;2023-04-26T16:25:31;98687.22;;;14.72;38.08
48792;BME280;34587;48.816;9.420;2023-04-26T16:27:56;98689.84;;;14.20;38.03
48792;BME280;34587;48.816;9.420;2023-04-26T16:30:22;98686.16;;;14.52;37.71
48792;BME280;34587;48.816;9.420;2023-04-26T16:32:47;98685.50;;;14.46;37.45
48792;BME280;34587;48.816;9.420;2023-04-26T16:35:12;98684.31;;;14.56;37.86
48792;BME280;34587;48.816;9.420;2023-04-26T16:37:38;98696.09;;;14.41;37.75
48792;BME280;34587;48.816;9.420;2023-04-26T16:40:06;98683.69;;;13.98;38.96
48792;BME280;34587;48.816;9.420;2023-04-26T16:42:32;98693.13;;;14.00;38.77
48792;BME280;34587;48.816;9.420;2023-04-26T16:44:57;98689.31;;;14.10;39.10
48792;BME280;34587;48.816;9.420;2023-04-26T16:47:22;98689.75;;;13.98;39.25
48792;BME280;34587;48.816;9.420;2023-04-26T16:49:47;98689.00;;;14.20;38.43
48792;BME280;34587;48.816;9.420;2023-04-26T16:52:13;98690.28;;;14.33;37.95
48792;BME280;34587;48.816;9.420;2023-04-26T16:54:38;98691.88;;;14.12;40.45
48792;BME280;34587;48.816;9.420;2023-04-26T16:57:03;98693.97;;;14.01;40.10
48792;BME280;34587;48.816;9.420;2023-04-26T16:59:29;98695.91;;;14.21;39.11
48792;BME280;34587;48.816;9.420;2023-04-26T17:01:54;98689.81;;;13.95;38.68
48792;BME280;34587;48.816;9.420;2023-04-26T17:04:19;98689.06;;;14.18;38.82
48792;BME280;34587;48.816;9.420;2023-04-26T17:06:44;98704.28;;;13.51;40.79
48792;BME280;34587;48.816;9.420;2023-04-26T17:09:10;98688.16;;;13.66;40.01
48792;BME280;34587;48.816;9.420;2023-04-26T17:11:36;98690.03;;;13.89;39.21
48792;BME280;34587;48.816;9.420;2023-04-26T17:14:05;98697.16;;;13.84;39.05
48792;BME280;34587;48.816;9.420;2023-04-26T17:16:31;98697.44;;;13.75;38.86
48792;BME280;34587;48.816;9.420;2023-04-26T17:18:56;98708.78;;;13.16;40.27
48792;BME280;34587;48.816;9.420;2023-04-26T17:21:22;98707.16;;;12.81;41.92
48792;BME280;34587;48.816;9.420;2023-04-26T17:23:47;98705.44;;;13.11;40.60
48792;BME280;34587;48.816;9.420;2023-04-26T17:26:12;98710.53;;;13.14;40.82
48792;BME280;34587;48.816;9.420;2023-04-26T17:28:38;98710.34;;;12.92;42.05
48792;BME280;34587;48.816;9.420;2023-04-26T17:31:03;98714.16;;;12.79;43.26
48792;BME280;34587;48.816;9.420;2023-04-26T17:33:28;98720.59;;;12.66;43.19
48792;BME280;34587;48.816;9.420;2023-04-26T17:35:54;98709.41;;;12.31;43.74